createdAt,value
2019-06-20T00:00:48.205Z,1013.29
2019-06-20T00:01:48.239Z,1013.25
2019-06-20T00:02:48.276Z,1013.25
2019-06-20T00:03:48.312Z,1013.30
2019-06-20T00:04:48.348Z,1013.34
2019-06-20T00:05:48.385Z,1013.34
2019-06-20T00:06:48.420Z,1013.34
2019-06-20T00:07:48.455Z,1013.24
2019-06-20T00:08:48.504Z,1013.23
2019-06-20T00:09:48.527Z,1013.20
2019-06-20T00:10:48.564Z,1013.19
2019-06-20T00:11:48.604Z,1013.22
2019-06-20T00:12:59.796Z,1013.23
2019-06-20T00:13:48.672Z,1013.23
2019-06-20T00:14:48.706Z,1013.15
2019-06-20T00:15:48.744Z,1013.15
2019-06-20T00:16:48.780Z,1013.15
2019-06-20T00:17:48.815Z,1013.20
2019-06-20T00:18:48.855Z,1013.16
2019-06-20T00:19:48.890Z,1013.15
2019-06-20T00:20:48.927Z,1013.17
2019-06-20T00:21:48.963Z,1013.15
2019-06-20T00:22:49.029Z,1013.12
2019-06-20T00:23:49.035Z,1013.08
2019-06-20T00:24:49.073Z,1013.07
2019-06-20T00:25:49.111Z,1013.08
2019-06-20T00:26:49.214Z,1013.07
2019-06-20T00:27:49.183Z,1013.11
2019-06-20T00:28:49.222Z,1013.08
2019-06-20T00:29:49.256Z,1013.07
2019-06-20T00:30:49.292Z,1013.10
2019-06-20T00:31:49.336Z,1013.11
2019-06-20T00:32:49.370Z,1013.05
2019-06-20T00:33:49.410Z,1013.09
2019-06-20T00:34:49.453Z,1013.09
2019-06-20T00:35:49.477Z,1013.07
2019-06-20T00:36:51.373Z,1013.03
2019-06-20T00:37:49.554Z,1013.06
2019-06-20T00:38:49.589Z,1013.01
2019-06-20T00:39:49.630Z,1013.00
2019-06-20T00:40:49.664Z,1013.00
2019-06-20T00:41:49.700Z,1012.98
2019-06-20T00:42:49.739Z,1012.98
2019-06-20T00:43:49.774Z,1012.98
2019-06-20T00:44:49.812Z,1012.97
2019-06-20T00:45:49.849Z,1012.98
2019-06-20T00:46:49.892Z,1012.96
2019-06-20T00:47:49.926Z,1012.95
2019-06-20T00:48:49.966Z,1012.95
2019-06-20T00:49:50.000Z,1012.93
2019-06-20T00:50:50.039Z,1012.92
2019-06-20T00:51:50.073Z,1012.94
2019-06-20T00:52:50.112Z,1012.97
2019-06-20T00:53:50.153Z,1012.95
2019-06-20T00:54:50.184Z,1012.89
2019-06-20T00:55:50.227Z,1012.91
2019-06-20T00:56:50.263Z,1012.88
2019-06-20T00:57:50.295Z,1012.87
2019-06-20T00:58:50.333Z,1012.92
2019-06-20T00:59:50.369Z,1012.89
2019-06-20T01:00:50.408Z,1012.92
2019-06-20T01:01:50.447Z,1012.85
2019-06-20T01:02:50.544Z,1012.87
2019-06-20T01:03:50.525Z,1012.87
2019-06-20T01:04:50.557Z,1012.82
2019-06-20T01:05:50.593Z,1012.87
2019-06-20T01:06:50.634Z,1012.82
2019-06-20T01:07:50.671Z,1012.77
2019-06-20T01:08:50.707Z,1012.78
2019-06-20T01:09:50.744Z,1012.78
2019-06-20T01:10:50.785Z,1012.78
2019-06-20T01:11:50.821Z,1012.76
2019-06-20T01:12:50.855Z,1012.75
2019-06-20T01:13:52.876Z,1012.79
2019-06-20T01:14:50.932Z,1012.77
2019-06-20T01:15:50.969Z,1012.72
2019-06-20T01:16:51.003Z,1012.70
2019-06-20T01:17:51.043Z,1012.72
2019-06-20T01:18:51.079Z,1012.73
2019-06-20T01:19:51.115Z,1012.75
2019-06-20T01:20:51.159Z,1012.72
2019-06-20T01:21:51.194Z,1012.74
2019-06-20T01:22:51.230Z,1012.69
2019-06-20T01:23:51.267Z,1012.70
2019-06-20T01:24:51.302Z,1012.69
2019-06-20T01:25:51.339Z,1012.68
2019-06-20T01:26:51.376Z,1012.65
2019-06-20T01:27:51.417Z,1012.64
2019-06-20T01:28:51.451Z,1012.68
2019-06-20T01:29:51.490Z,1012.66
2019-06-20T01:30:51.532Z,1012.71
2019-06-20T01:31:51.580Z,1012.69
2019-06-20T01:32:51.603Z,1012.69
2019-06-20T01:33:51.638Z,1012.66
2019-06-20T01:34:51.676Z,1012.66
2019-06-20T01:35:51.724Z,1012.67
2019-06-20T01:36:51.751Z,1012.66
2019-06-20T01:37:51.787Z,1012.61
2019-06-20T01:38:51.824Z,1012.62
2019-06-20T01:39:51.863Z,1012.61
2019-06-20T01:40:51.901Z,1012.58
2019-06-20T01:41:51.937Z,1012.56
2019-06-20T01:42:51.977Z,1012.58
2019-06-20T01:43:52.012Z,1012.56
2019-06-20T01:44:52.053Z,1012.56
2019-06-20T01:45:52.087Z,1012.53
2019-06-20T01:46:52.138Z,1012.53
2019-06-20T01:47:52.165Z,1012.51
2019-06-20T01:48:52.201Z,1012.54
2019-06-20T01:49:52.240Z,1012.55
2019-06-20T01:50:52.274Z,1012.50
2019-06-20T01:51:52.310Z,1012.51
2019-06-20T01:52:52.353Z,1012.50
2019-06-20T01:53:52.387Z,1012.50
2019-06-20T01:54:52.422Z,1012.49
2019-06-20T01:55:52.460Z,1012.47
2019-06-20T01:56:52.520Z,1012.43
2019-06-20T01:57:52.534Z,1012.46
2019-06-20T01:58:52.574Z,1012.38
2019-06-20T01:59:52.609Z,1012.37
2019-06-20T02:00:52.648Z,1012.34
2019-06-20T02:01:52.685Z,1012.38
2019-06-20T02:02:52.740Z,1012.38
2019-06-20T02:03:52.760Z,1012.35
2019-06-20T02:04:52.798Z,1012.36
2019-06-20T02:05:52.835Z,1012.33
2019-06-20T02:06:52.878Z,1012.35
2019-06-20T02:07:52.912Z,1012.33
2019-06-20T02:08:52.949Z,1012.34
2019-06-20T02:09:52.989Z,1012.30
2019-06-20T02:10:53.022Z,1012.33
2019-06-20T02:11:53.061Z,1012.31
2019-06-20T02:12:53.104Z,1012.33
2019-06-20T02:14:06.381Z,1012.34
2019-06-20T02:14:53.176Z,1012.34
2019-06-20T02:15:53.209Z,1012.38
2019-06-20T02:16:53.248Z,1012.29
2019-06-20T02:17:53.284Z,1012.31
2019-06-20T02:18:53.323Z,1012.28
2019-06-20T02:19:53.360Z,1012.30
2019-06-20T02:20:53.402Z,1012.24
2019-06-20T02:21:53.435Z,1012.28
2019-06-20T02:22:53.473Z,1012.31
2019-06-20T02:23:53.510Z,1012.29
2019-06-20T02:24:53.548Z,1012.32
2019-06-20T02:25:53.586Z,1012.33
2019-06-20T02:26:53.624Z,1012.30
2019-06-20T02:27:53.663Z,1012.32
2019-06-20T02:28:53.698Z,1012.32
2019-06-20T02:29:53.735Z,1012.29
2019-06-20T02:30:53.775Z,1012.33
2019-06-20T02:31:53.817Z,1012.33
2019-06-20T02:32:53.852Z,1012.32
2019-06-20T02:33:53.886Z,1012.33
2019-06-20T02:34:53.928Z,1012.29
2019-06-20T02:35:53.972Z,1012.24
2019-06-20T02:36:54.021Z,1012.27
2019-06-20T02:37:54.041Z,1012.23
2019-06-20T02:38:54.079Z,1012.29
2019-06-20T02:39:54.115Z,1012.25
2019-06-20T02:40:54.151Z,1012.24
2019-06-20T02:41:54.190Z,1012.24
2019-06-20T02:42:54.235Z,1012.23
2019-06-20T02:43:54.265Z,1012.29
2019-06-20T02:44:54.304Z,1012.33
2019-06-20T02:45:54.342Z,1012.29
2019-06-20T02:46:54.379Z,1012.30
2019-06-20T02:47:54.423Z,1012.30
2019-06-20T02:48:54.458Z,1012.28
2019-06-20T02:49:54.495Z,1012.28
2019-06-20T02:50:54.529Z,1012.24
2019-06-20T02:51:54.573Z,1012.26
2019-06-20T02:52:54.614Z,1012.26
2019-06-20T02:53:54.645Z,1012.27
2019-06-20T02:54:54.683Z,1012.27
2019-06-20T02:55:54.720Z,1012.27
2019-06-20T02:56:54.765Z,1012.29
2019-06-20T02:57:54.798Z,1012.28
2019-06-20T02:58:54.838Z,1012.35
2019-06-20T02:59:54.873Z,1012.31
2019-06-20T03:00:54.915Z,1012.32
2019-06-20T03:01:54.952Z,1012.30
2019-06-20T03:02:54.988Z,1012.26
2019-06-20T03:03:55.026Z,1012.26
2019-06-20T03:04:55.066Z,1012.26
2019-06-20T03:05:55.105Z,1012.22
2019-06-20T03:06:55.142Z,1012.21
2019-06-20T03:07:55.188Z,1012.23
2019-06-20T03:08:55.219Z,1012.23
2019-06-20T03:09:55.258Z,1012.21
2019-06-20T03:10:55.296Z,1012.21
2019-06-20T03:11:55.336Z,1012.19
2019-06-20T03:12:55.374Z,1012.20
2019-06-20T03:13:55.413Z,1012.23
2019-06-20T03:14:55.451Z,1012.22
2019-06-20T03:15:55.489Z,1012.22
2019-06-20T03:16:55.527Z,1012.19
2019-06-20T03:17:55.567Z,1012.20
2019-06-20T03:18:55.609Z,1012.22
2019-06-20T03:19:55.642Z,1012.24
2019-06-20T03:20:55.683Z,1012.19
2019-06-20T03:21:55.724Z,1012.20
2019-06-20T03:22:55.760Z,1012.22
2019-06-20T03:23:55.820Z,1012.24
2019-06-20T03:24:55.840Z,1012.24
2019-06-20T03:25:55.877Z,1012.22
2019-06-20T03:26:55.917Z,1012.28
2019-06-20T03:27:55.955Z,1012.28
2019-06-20T03:28:55.999Z,1012.23
2019-06-20T03:29:56.035Z,1012.25
2019-06-20T03:30:56.087Z,1012.27
2019-06-20T03:31:56.116Z,1012.26
2019-06-20T03:32:56.156Z,1012.30
2019-06-20T03:33:56.193Z,1012.31
2019-06-20T03:34:56.231Z,1012.30
2019-06-20T03:35:56.275Z,1012.27
2019-06-20T03:36:56.314Z,1012.29
2019-06-20T03:37:56.352Z,1012.28
2019-06-20T03:38:56.391Z,1012.23
2019-06-20T03:39:56.430Z,1012.21
2019-06-20T03:40:56.472Z,1012.18
2019-06-20T03:41:56.509Z,1012.15
2019-06-20T03:42:56.550Z,1012.13
2019-06-20T03:43:59.022Z,1012.13
2019-06-20T03:45:02.235Z,1012.14
2019-06-20T03:45:56.670Z,1012.12
2019-06-20T03:46:56.709Z,1012.12
2019-06-20T03:47:56.755Z,1012.18
2019-06-20T03:48:56.791Z,1012.16
2019-06-20T03:49:56.829Z,1012.16
2019-06-20T03:50:56.869Z,1012.14
2019-06-20T03:51:56.909Z,1012.17
2019-06-20T03:52:56.960Z,1012.20
2019-06-20T03:53:56.990Z,1012.19
2019-06-20T03:54:57.030Z,1012.17
2019-06-20T03:55:57.072Z,1012.23
2019-06-20T03:56:57.111Z,1012.21
2019-06-20T03:57:57.148Z,1012.21
2019-06-20T03:58:57.191Z,1012.14
2019-06-20T03:59:57.225Z,1012.20
2019-06-20T04:00:57.271Z,1012.24
2019-06-20T04:01:57.305Z,1012.17
2019-06-20T04:02:57.345Z,1012.16
2019-06-20T04:03:57.391Z,1012.17
2019-06-20T04:04:57.429Z,1012.13
2019-06-20T04:05:57.478Z,1012.09
2019-06-20T04:06:57.503Z,1012.11
2019-06-20T04:07:57.542Z,1012.05
2019-06-20T04:08:57.582Z,1012.06
2019-06-20T04:09:57.632Z,1012.02
2019-06-20T04:10:57.664Z,1012.01
2019-06-20T04:11:57.703Z,1011.99
2019-06-20T04:12:57.742Z,1012.00
2019-06-20T04:13:57.781Z,1011.95
2019-06-20T04:14:57.823Z,1011.96
2019-06-20T04:15:57.871Z,1011.93
2019-06-20T04:16:57.902Z,1011.93
2019-06-20T04:17:57.939Z,1011.90
2019-06-20T04:18:57.980Z,1011.87
2019-06-20T04:19:58.017Z,1011.84
2019-06-20T04:20:58.059Z,1011.91
2019-06-20T04:21:58.097Z,1011.89
2019-06-20T04:22:58.140Z,1011.95
2019-06-20T04:23:58.177Z,1011.94
2019-06-20T04:24:58.218Z,1011.90
2019-06-20T04:25:58.258Z,1011.88
2019-06-20T04:26:58.299Z,1011.87
2019-06-20T04:27:58.340Z,1011.85
2019-06-20T04:28:58.378Z,1011.88
2019-06-20T04:29:58.418Z,1011.90
2019-06-20T04:30:58.457Z,1011.89
2019-06-20T04:31:58.554Z,1011.80
2019-06-20T04:32:58.540Z,1011.80
2019-06-20T04:33:58.579Z,1011.80
2019-06-20T04:34:58.620Z,1011.77
2019-06-20T04:35:58.663Z,1011.80
2019-06-20T04:36:58.705Z,1011.75
2019-06-20T04:37:58.756Z,1011.76
2019-06-20T04:38:58.794Z,1011.76
2019-06-20T04:39:58.830Z,1011.75
2019-06-20T04:40:58.869Z,1011.81
2019-06-20T04:41:58.912Z,1011.80
2019-06-20T04:42:58.957Z,1011.85
2019-06-20T04:43:58.998Z,1011.84
2019-06-20T04:44:59.041Z,1011.90
2019-06-20T04:45:59.083Z,1011.84
2019-06-20T04:46:59.124Z,1011.82
2019-06-20T04:47:59.165Z,1011.79
2019-06-20T04:48:59.210Z,1011.84
2019-06-20T04:49:59.251Z,1011.81
2019-06-20T04:50:59.296Z,1011.85
2019-06-20T04:51:59.339Z,1011.85
2019-06-20T04:52:59.382Z,1011.78
2019-06-20T04:53:59.425Z,1011.75
2019-06-20T04:54:59.471Z,1011.77
2019-06-20T04:55:59.512Z,1011.77
2019-06-20T04:56:59.559Z,1011.74
2019-06-20T04:57:59.601Z,1011.76
2019-06-20T04:58:59.647Z,1011.77
2019-06-20T04:59:59.704Z,1011.77
2019-06-20T05:00:59.741Z,1011.80
2019-06-20T05:01:59.778Z,1011.77
2019-06-20T05:02:59.824Z,1011.78
2019-06-20T05:03:59.872Z,1011.78
2019-06-20T05:04:59.912Z,1011.77
2019-06-20T05:05:59.956Z,1011.77
2019-06-20T05:07:00.000Z,1011.82
2019-06-20T05:08:00.046Z,1011.77
2019-06-20T05:09:00.091Z,1011.79
2019-06-20T05:10:00.171Z,1011.77
2019-06-20T05:11:00.185Z,1011.78
2019-06-20T05:12:00.268Z,1011.81
2019-06-20T05:13:00.272Z,1011.84
2019-06-20T05:14:00.317Z,1011.78
2019-06-20T05:15:00.364Z,1011.85
2019-06-20T05:16:00.409Z,1011.88
2019-06-20T05:17:00.456Z,1011.76
2019-06-20T05:18:00.503Z,1011.78
2019-06-20T05:19:00.550Z,1011.70
2019-06-20T05:20:00.594Z,1011.73
2019-06-20T05:21:00.640Z,1011.78
2019-06-20T05:22:00.690Z,1011.77
2019-06-20T05:23:00.732Z,1011.88
2019-06-20T05:24:01.015Z,1011.94
2019-06-20T05:25:00.829Z,1012.02
2019-06-20T05:26:00.870Z,1011.91
2019-06-20T05:27:00.917Z,1011.86
2019-06-20T05:28:00.962Z,1011.79
2019-06-20T05:29:01.010Z,1011.84
2019-06-20T05:30:01.057Z,1011.80
2019-06-20T05:31:01.107Z,1011.86
2019-06-20T05:32:01.151Z,1011.76
2019-06-20T05:33:01.200Z,1011.72
2019-06-20T05:34:01.249Z,1011.88
2019-06-20T05:35:03.123Z,1011.76
2019-06-20T05:36:01.342Z,1011.77
2019-06-20T05:37:01.390Z,1011.79
2019-06-20T05:38:01.437Z,1011.74
2019-06-20T05:39:01.488Z,1011.77
2019-06-20T05:40:01.567Z,1011.76
2019-06-20T05:41:01.581Z,1011.78
2019-06-20T05:42:01.632Z,1011.81
2019-06-20T05:43:01.687Z,1011.77
2019-06-20T05:44:01.726Z,1011.89
2019-06-20T05:45:01.777Z,1011.83
2019-06-20T05:46:09.237Z,1011.80
2019-06-20T05:47:12.544Z,1011.83
2019-06-20T05:48:01.921Z,1011.73
2019-06-20T05:49:01.971Z,1011.65
2019-06-20T05:50:02.052Z,1011.71
2019-06-20T05:51:02.067Z,1011.72
2019-06-20T05:52:02.118Z,1011.68
2019-06-20T05:53:02.166Z,1011.63
2019-06-20T05:54:02.218Z,1011.63
2019-06-20T05:55:02.263Z,1011.67
2019-06-20T05:56:02.315Z,1011.67
2019-06-20T05:57:03.740Z,1011.66
2019-06-20T05:58:02.411Z,1011.67
2019-06-20T05:59:02.461Z,1011.64
2019-06-20T06:00:02.513Z,1011.61
2019-06-20T06:01:02.556Z,1011.62
2019-06-20T06:02:02.625Z,1011.60
2019-06-20T06:03:06.834Z,1011.68
2019-06-20T06:04:02.757Z,1011.63
2019-06-20T06:05:02.750Z,1011.60
2019-06-20T06:06:02.795Z,1011.64
2019-06-20T06:07:02.843Z,1011.64
2019-06-20T06:08:03.786Z,1011.64
2019-06-20T06:09:02.939Z,1011.60
2019-06-20T06:10:04.051Z,1011.59
2019-06-20T06:11:03.036Z,1011.61
2019-06-20T06:12:03.081Z,1011.59
2019-06-20T06:13:03.186Z,1011.59
2019-06-20T06:14:03.180Z,1011.54
2019-06-20T06:15:03.226Z,1011.55
2019-06-20T06:16:03.331Z,1011.51
2019-06-20T06:17:03.635Z,1011.53
2019-06-20T06:18:03.364Z,1011.49
2019-06-20T06:19:03.409Z,1011.49
2019-06-20T06:20:03.460Z,1011.46
2019-06-20T06:21:03.503Z,1011.53
2019-06-20T06:22:03.557Z,1011.49
2019-06-20T06:23:03.598Z,1011.47
2019-06-20T06:24:03.645Z,1011.49
2019-06-20T06:25:03.691Z,1011.52
2019-06-20T06:26:03.736Z,1011.54
2019-06-20T06:27:03.785Z,1011.67
2019-06-20T06:28:03.830Z,1011.71
2019-06-20T06:29:03.878Z,1011.47
2019-06-20T06:30:03.921Z,1011.54
2019-06-20T06:31:03.978Z,1011.51
2019-06-20T06:32:04.016Z,1011.60
2019-06-20T06:33:04.083Z,1011.43
2019-06-20T06:34:04.111Z,1011.64
2019-06-20T06:35:04.157Z,1011.42
2019-06-20T06:36:04.206Z,1011.50
2019-06-20T06:37:04.251Z,1011.47
2019-06-20T06:38:04.310Z,1011.52
2019-06-20T06:39:04.384Z,1011.44
2019-06-20T06:40:04.392Z,1011.39
2019-06-20T06:41:04.445Z,1011.51
2019-06-20T06:42:04.498Z,1011.42
2019-06-20T06:43:04.541Z,1011.39
2019-06-20T06:44:04.587Z,1011.48
2019-06-20T06:45:04.634Z,1011.50
2019-06-20T06:46:04.682Z,1011.56
2019-06-20T06:47:04.735Z,1011.50
2019-06-20T06:48:04.782Z,1011.54
2019-06-20T06:49:04.829Z,1011.58
2019-06-20T06:50:04.877Z,1011.49
2019-06-20T06:51:04.922Z,1011.40
2019-06-20T06:52:04.984Z,1011.40
2019-06-20T06:53:05.019Z,1011.39
2019-06-20T06:54:05.070Z,1011.31
2019-06-20T06:55:05.114Z,1011.30
2019-06-20T06:56:05.163Z,1011.42
2019-06-20T06:57:05.207Z,1011.45
2019-06-20T06:58:05.275Z,1011.49
2019-06-20T06:59:05.302Z,1011.56
2019-06-20T07:00:05.355Z,1011.44
2019-06-20T07:01:05.393Z,1011.54
2019-06-20T07:02:05.446Z,1011.60
2019-06-20T07:03:05.488Z,1011.61
2019-06-20T07:04:05.535Z,1011.54
2019-06-20T07:05:05.584Z,1011.59
2019-06-20T07:06:05.628Z,1011.69
2019-06-20T07:07:05.676Z,1011.52
2019-06-20T07:08:05.726Z,1011.62
2019-06-20T07:09:05.786Z,1011.47
2019-06-20T07:10:05.821Z,1011.45
2019-06-20T07:11:05.868Z,1011.43
2019-06-20T07:12:05.927Z,1011.50
2019-06-20T07:13:05.966Z,1011.59
2019-06-20T07:14:06.013Z,1011.48
2019-06-20T07:15:06.064Z,1011.62
2019-06-20T07:16:06.111Z,1011.69
2019-06-20T07:17:06.159Z,1011.70
2019-06-20T07:18:06.205Z,1011.73
2019-06-20T07:19:06.255Z,1011.69
2019-06-20T07:20:06.303Z,1011.67
2019-06-20T07:21:06.352Z,1011.53
2019-06-20T07:22:06.404Z,1011.63
2019-06-20T07:23:06.450Z,1011.50
2019-06-20T07:24:06.500Z,1011.67
2019-06-20T07:25:06.555Z,1011.59
2019-06-20T07:26:06.599Z,1011.37
2019-06-20T07:27:06.652Z,1011.40
2019-06-20T07:28:06.700Z,1011.40
2019-06-20T07:29:06.749Z,1011.37
2019-06-20T07:30:06.803Z,1011.39
2019-06-20T07:31:06.851Z,1011.50
2019-06-20T07:32:06.895Z,1011.44
2019-06-20T07:33:06.944Z,1011.47
2019-06-20T07:34:06.994Z,1011.49
2019-06-20T07:35:07.041Z,1011.53
2019-06-20T07:36:07.090Z,1011.52
2019-06-20T07:37:07.135Z,1011.55
2019-06-20T07:38:07.183Z,1011.56
2019-06-20T07:39:07.231Z,1011.54
2019-06-20T07:40:07.274Z,1011.53
2019-06-20T07:41:07.320Z,1011.52
2019-06-20T07:42:07.365Z,1011.50
2019-06-20T07:43:07.415Z,1011.48
2019-06-20T07:44:07.464Z,1011.56
2019-06-20T07:45:07.506Z,1011.58
2019-06-20T07:46:07.551Z,1011.57
2019-06-20T07:47:17.108Z,1011.56
2019-06-20T07:48:07.648Z,1011.50
2019-06-20T07:49:07.689Z,1011.47
2019-06-20T07:50:07.732Z,1011.45
2019-06-20T07:51:07.776Z,1011.39
2019-06-20T07:52:07.822Z,1011.38
2019-06-20T07:53:07.878Z,1011.39
2019-06-20T07:54:07.912Z,1011.42
2019-06-20T07:55:07.963Z,1011.51
2019-06-20T07:56:09.511Z,1011.59
2019-06-20T07:57:08.055Z,1011.56
2019-06-20T07:58:08.093Z,1011.50
2019-06-20T07:59:08.187Z,1011.56
2019-06-20T08:00:08.185Z,1011.54
2019-06-20T08:01:08.232Z,1011.51
2019-06-20T08:02:08.279Z,1011.52
2019-06-20T08:03:08.320Z,1011.46
2019-06-20T08:04:08.373Z,1011.45
2019-06-20T08:05:08.418Z,1011.45
2019-06-20T08:06:08.471Z,1011.39
2019-06-20T08:07:08.515Z,1011.39
2019-06-20T08:08:08.564Z,1011.41
2019-06-20T08:09:08.618Z,1011.41
2019-06-20T08:10:08.686Z,1011.40
2019-06-20T08:11:08.708Z,1011.42
2019-06-20T08:12:08.762Z,1011.42
2019-06-20T08:13:08.811Z,1011.37
2019-06-20T08:14:08.863Z,1011.37
2019-06-20T08:15:15.037Z,1011.38
2019-06-20T08:16:08.975Z,1011.34
2019-06-20T08:17:09.018Z,1011.33
2019-06-20T08:18:09.094Z,1011.33
2019-06-20T08:19:09.125Z,1011.36
2019-06-20T08:20:09.169Z,1011.34
2019-06-20T08:21:09.221Z,1011.31
2019-06-20T08:22:09.273Z,1011.35
2019-06-20T08:23:09.326Z,1011.28
2019-06-20T08:24:09.456Z,1011.32
2019-06-20T08:25:09.431Z,1011.33
2019-06-20T08:26:09.490Z,1011.36
2019-06-20T08:27:09.539Z,1011.40
2019-06-20T08:28:09.592Z,1011.42
2019-06-20T08:29:20.313Z,1011.36
2019-06-20T08:30:09.763Z,1011.25
2019-06-20T08:31:09.749Z,1011.31
2019-06-20T08:32:09.802Z,1011.24
2019-06-20T08:33:12.122Z,1011.35
2019-06-20T08:34:09.910Z,1011.40
2019-06-20T08:35:09.961Z,1011.43
2019-06-20T08:36:10.016Z,1011.43
2019-06-20T08:37:10.067Z,1011.43
2019-06-20T08:38:10.120Z,1011.43
2019-06-20T08:39:10.173Z,1011.45
2019-06-20T08:40:10.226Z,1011.44
2019-06-20T08:41:10.280Z,1011.38
2019-06-20T08:42:10.331Z,1011.36
2019-06-20T08:43:10.386Z,1011.37
2019-06-20T08:44:10.438Z,1011.48
2019-06-20T08:45:10.490Z,1011.48
2019-06-20T08:46:10.625Z,1011.45
2019-06-20T08:47:10.596Z,1011.47
2019-06-20T08:48:10.651Z,1011.47
2019-06-20T08:49:10.703Z,1011.45
2019-06-20T08:50:10.756Z,1011.45
2019-06-20T08:51:14.347Z,1011.44
2019-06-20T08:52:10.866Z,1011.49
2019-06-20T08:53:10.916Z,1011.51
2019-06-20T08:54:10.970Z,1011.52
2019-06-20T08:55:11.030Z,1011.44
2019-06-20T08:56:11.080Z,1011.52
2019-06-20T08:57:11.133Z,1011.47
2019-06-20T08:58:11.185Z,1011.52
2019-06-20T08:59:23.924Z,1011.49
2019-06-20T09:00:11.312Z,1011.51
2019-06-20T09:01:11.354Z,1011.49
2019-06-20T09:02:11.399Z,1011.50
2019-06-20T09:03:11.455Z,1011.50
2019-06-20T09:04:11.511Z,1011.51
2019-06-20T09:05:11.564Z,1011.51
2019-06-20T09:06:11.618Z,1011.51
2019-06-20T09:07:11.682Z,1011.53
2019-06-20T09:08:12.133Z,1011.50
2019-06-20T09:09:11.783Z,1011.55
2019-06-20T09:10:11.850Z,1011.49
2019-06-20T09:11:11.887Z,1011.46
2019-06-20T09:12:11.943Z,1011.53
2019-06-20T09:13:11.996Z,1011.52
2019-06-20T09:14:12.046Z,1011.53
2019-06-20T09:15:12.103Z,1011.57
2019-06-20T09:16:24.111Z,1011.53
2019-06-20T09:17:12.215Z,1011.52
2019-06-20T09:18:12.270Z,1011.52
2019-06-20T09:19:12.319Z,1011.51
2019-06-20T09:20:12.385Z,1011.37
2019-06-20T09:21:12.429Z,1011.47
2019-06-20T09:22:12.478Z,1011.37
2019-06-20T09:23:12.535Z,1011.36
2019-06-20T09:24:12.588Z,1011.60
2019-06-20T09:25:12.655Z,1011.49
2019-06-20T09:26:12.694Z,1011.50
2019-06-20T09:27:12.748Z,1011.46
2019-06-20T09:28:12.799Z,1011.48
2019-06-20T09:29:12.856Z,1011.59
2019-06-20T09:30:12.962Z,1011.51
2019-06-20T09:31:12.960Z,1011.56
2019-06-20T09:32:13.015Z,1011.52
2019-06-20T09:33:13.077Z,1011.56
2019-06-20T09:34:13.128Z,1011.57
2019-06-20T09:35:13.179Z,1011.55
2019-06-20T09:36:13.212Z,1011.53
2019-06-20T09:37:13.264Z,1011.46
2019-06-20T09:38:13.319Z,1011.49
2019-06-20T09:39:13.360Z,1011.70
2019-06-20T09:40:13.427Z,1011.78
2019-06-20T09:41:13.459Z,1011.66
2019-06-20T09:42:13.507Z,1011.58
2019-06-20T09:43:26.719Z,1011.60
2019-06-20T09:44:13.608Z,1011.59
2019-06-20T09:45:13.661Z,1011.54
2019-06-20T09:46:13.704Z,1011.54
2019-06-20T09:47:13.752Z,1011.49
2019-06-20T09:48:13.804Z,1011.58
2019-06-20T09:49:13.852Z,1011.48
2019-06-20T09:50:13.897Z,1011.51
2019-06-20T09:51:13.947Z,1011.52
2019-06-20T09:52:13.998Z,1011.52
2019-06-20T09:53:14.046Z,1011.44
2019-06-20T09:54:14.094Z,1011.43
2019-06-20T09:55:14.141Z,1011.43
2019-06-20T09:56:14.187Z,1011.42
2019-06-20T09:57:14.235Z,1011.43
2019-06-20T09:58:14.282Z,1011.44
2019-06-20T09:59:27.154Z,1011.47
2019-06-20T10:00:14.381Z,1011.35
2019-06-20T10:01:14.425Z,1011.28
2019-06-20T10:02:14.473Z,1011.33
2019-06-20T10:03:14.519Z,1011.39
2019-06-20T10:04:14.569Z,1011.31
2019-06-20T10:05:14.616Z,1011.34
2019-06-20T10:06:14.901Z,1011.38
2019-06-20T10:07:14.711Z,1011.36
2019-06-20T10:08:14.781Z,1011.47
2019-06-20T10:09:14.806Z,1011.50
2019-06-20T10:10:14.857Z,1011.58
2019-06-20T10:11:14.901Z,1011.42
2019-06-20T10:12:14.948Z,1011.58
2019-06-20T10:13:14.997Z,1011.60
2019-06-20T10:14:15.048Z,1011.62
2019-06-20T10:15:15.092Z,1011.63
2019-06-20T10:16:15.141Z,1011.64
2019-06-20T10:17:15.192Z,1011.66
2019-06-20T10:18:15.243Z,1011.61
2019-06-20T10:19:15.289Z,1011.67
2019-06-20T10:20:15.350Z,1011.64
2019-06-20T10:21:15.392Z,1011.40
2019-06-20T10:22:15.445Z,1011.41
2019-06-20T10:23:15.493Z,1011.31
2019-06-20T10:24:15.550Z,1011.36
2019-06-20T10:25:15.597Z,1011.45
2019-06-20T10:26:15.648Z,1011.41
2019-06-20T10:27:15.700Z,1011.28
2019-06-20T10:28:15.756Z,1011.35
2019-06-20T10:29:15.805Z,1011.46
2019-06-20T10:30:15.857Z,1011.47
2019-06-20T10:31:15.909Z,1011.30
2019-06-20T10:32:15.965Z,1011.10
2019-06-20T10:33:16.023Z,1011.17
2019-06-20T10:34:16.068Z,1011.17
2019-06-20T10:35:16.122Z,1011.24
2019-06-20T10:36:16.175Z,1011.33
2019-06-20T10:37:16.228Z,1011.46
2019-06-20T10:38:16.276Z,1011.49
2019-06-20T10:39:16.333Z,1011.37
2019-06-20T10:40:16.385Z,1011.18
2019-06-20T10:41:16.437Z,1011.09
2019-06-20T10:42:16.489Z,1011.13
2019-06-20T10:43:16.542Z,1011.14
2019-06-20T10:44:16.596Z,1011.23
2019-06-20T10:45:16.647Z,1011.23
2019-06-20T10:46:16.703Z,1011.18
2019-06-20T10:47:31.349Z,1011.23
2019-06-20T10:48:16.804Z,1011.34
2019-06-20T10:49:16.855Z,1011.16
2019-06-20T10:50:16.903Z,1011.27
2019-06-20T10:51:16.953Z,1011.22
2019-06-20T10:52:17.005Z,1011.06
2019-06-20T10:53:17.058Z,1011.09
2019-06-20T10:54:17.106Z,1011.01
2019-06-20T10:55:17.167Z,1010.96
2019-06-20T10:56:17.209Z,1010.94
2019-06-20T10:57:17.262Z,1010.98
2019-06-20T10:58:17.309Z,1010.98
2019-06-20T10:59:17.364Z,1010.99
2019-06-20T11:00:30.170Z,1011.08
2019-06-20T11:01:17.461Z,1011.30
2019-06-20T11:02:17.512Z,1011.20
2019-06-20T11:03:17.583Z,1011.16
2019-06-20T11:04:17.609Z,1011.13
2019-06-20T11:05:17.681Z,1011.22
2019-06-20T11:06:17.708Z,1011.12
2019-06-20T11:07:17.760Z,1011.08
2019-06-20T11:08:17.823Z,1010.96
2019-06-20T11:09:17.862Z,1011.02
2019-06-20T11:10:17.910Z,1010.93
2019-06-20T11:11:17.960Z,1010.94
2019-06-20T11:12:18.011Z,1010.96
2019-06-20T11:13:18.066Z,1010.97
2019-06-20T11:14:18.113Z,1011.03
2019-06-20T11:15:18.168Z,1010.91
2019-06-20T11:16:18.225Z,1010.84
2019-06-20T11:17:18.272Z,1010.81
2019-06-20T11:18:18.421Z,1010.79
2019-06-20T11:19:18.450Z,1010.77
2019-06-20T11:20:18.427Z,1011.04
2019-06-20T11:21:18.480Z,1010.91
2019-06-20T11:22:18.534Z,1010.92
2019-06-20T11:23:18.585Z,1011.19
2019-06-20T11:24:18.636Z,1011.07
2019-06-20T11:25:19.545Z,1011.05
2019-06-20T11:26:18.740Z,1010.96
2019-06-20T11:27:18.805Z,1010.94
2019-06-20T11:28:18.846Z,1010.73
2019-06-20T11:29:18.896Z,1010.81
2019-06-20T11:30:18.951Z,1010.76
2019-06-20T11:31:19.008Z,1010.77
2019-06-20T11:32:19.059Z,1010.82
2019-06-20T11:33:19.145Z,1010.80
2019-06-20T11:34:19.160Z,1010.82
2019-06-20T11:35:19.212Z,1010.76
2019-06-20T11:36:19.268Z,1010.64
2019-06-20T11:37:19.317Z,1010.69
2019-06-20T11:38:19.374Z,1010.69
2019-06-20T11:39:19.423Z,1010.67
2019-06-20T11:40:19.476Z,1010.63
2019-06-20T11:41:19.538Z,1010.66
2019-06-20T11:42:19.580Z,1010.69
2019-06-20T11:43:19.641Z,1010.72
2019-06-20T11:44:19.686Z,1010.70
2019-06-20T11:45:19.742Z,1010.58
2019-06-20T11:46:19.798Z,1010.48
2019-06-20T11:47:20.627Z,1010.44
2019-06-20T11:48:19.898Z,1010.45
2019-06-20T11:49:19.953Z,1010.48
2019-06-20T11:50:20.003Z,1010.37
2019-06-20T11:51:20.061Z,1010.49
2019-06-20T11:52:20.112Z,1010.44
2019-06-20T11:53:20.172Z,1010.57
2019-06-20T11:54:20.218Z,1010.49
2019-06-20T11:55:20.277Z,1010.26
2019-06-20T11:56:20.326Z,1010.49
2019-06-20T11:57:20.381Z,1010.34
2019-06-20T11:58:23.424Z,1010.08
2019-06-20T11:59:20.487Z,1010.07
2019-06-20T12:00:20.546Z,1010.24
2019-06-20T12:01:32.259Z,1010.10
2019-06-20T12:02:20.651Z,1010.35
2019-06-20T12:03:20.707Z,1010.17
2019-06-20T12:04:20.759Z,1010.39
2019-06-20T12:05:20.813Z,1010.46
2019-06-20T12:06:20.865Z,1010.47